sensor_id;sensor_type;location;lat;lon;timestamp;P1;durP1;ratioP1;P2;durP2;ratioP2
4268;SDS011;2148;48.554;7.834;2024-02-21T00:02:01;7.97;;;5.03;;
4268;SDS011;2148;48.554;7.834;2024-02-21T00:04:27;6.50;;;4.80;;
4268;SDS011;2148;48.554;7.834;2024-02-21T00:06:52;7.37;;;4.70;;
4268;SDS011;2148;48.554;7.834;2024-02-21T00:09:17;7.23;;;4.53;;
4268;SDS011;2148;48.554;7.834;2024-02-21T00:11:44;6.00;;;4.57;;
4268;SDS011;2148;48.554;7.834;2024-02-21T00:14:09;5.60;;;4.90;;
4268;SDS011;2148;48.554;7.834;2024-02-21T00:16:35;9.20;;;5.60;;
4268;SDS011;2148;48.554;7.834;2024-02-21T00:19:00;8.40;;;5.00;;
4268;SDS011;2148;48.554;7.834;2024-02-21T00:21:25;8.27;;;4.23;;
4268;SDS011;2148;48.554;7.834;2024-02-21T00:23:50;7.93;;;4.80;;
4268;SDS011;2148;48.554;7.834;2024-02-21T00:26:15;8.33;;;5.10;;
4268;SDS011;2148;48.554;7.834;2024-02-21T00:28:41;7.63;;;5.37;;
4268;SDS011;2148;48.554;7.834;2024-02-21T00:31:06;6.10;;;4.43;;
4268;SDS011;2148;48.554;7.834;2024-02-21T00:33:31;11.30;;;5.07;;
4268;SDS011;2148;48.554;7.834;2024-02-21T00:35:56;6.07;;;3.93;;
4268;SDS011;2148;48.554;7.834;2024-02-21T00:38:22;6.57;;;4.70;;
4268;SDS011;2148;48.554;7.834;2024-02-21T00:40:47;8.43;;;4.60;;
4268;SDS011;2148;48.554;7.834;2024-02-21T00:43:12;8.83;;;5.30;;
4268;SDS011;2148;48.554;7.834;2024-02-21T00:45:38;5.90;;;4.60;;
4268;SDS011;2148;48.554;7.834;2024-02-21T00:48:03;8.03;;;4.70;;
4268;SDS011;2148;48.554;7.834;2024-02-21T00:50:29;6.70;;;4.60;;
4268;SDS011;2148;48.554;7.834;2024-02-21T00:52:54;8.73;;;4.93;;
4268;SDS011;2148;48.554;7.834;2024-02-21T00:55:19;9.20;;;5.10;;
4268;SDS011;2148;48.554;7.834;2024-02-21T00:57:45;7.27;;;4.90;;
4268;SDS011;2148;48.554;7.834;2024-02-21T01:00:10;10.93;;;4.83;;
4268;SDS011;2148;48.554;7.834;2024-02-21T01:02:36;7.67;;;4.80;;
4268;SDS011;2148;48.554;7.834;2024-02-21T01:05:01;5.00;;;4.27;;
4268;SDS011;2148;48.554;7.834;2024-02-21T01:07:27;10.17;;;4.80;;
4268;SDS011;2148;48.554;7.834;2024-02-21T01:09:52;6.77;;;4.20;;
4268;SDS011;2148;48.554;7.834;2024-02-21T01:12:17;7.13;;;4.27;;
4268;SDS011;2148;48.554;7.834;2024-02-21T01:14:43;8.00;;;4.60;;
4268;SDS011;2148;48.554;7.834;2024-02-21T01:17:09;9.50;;;4.80;;
4268;SDS011;2148;48.554;7.834;2024-02-21T01:19:34;7.23;;;4.07;;
4268;SDS011;2148;48.554;7.834;2024-02-21T01:21:59;5.73;;;4.73;;
4268;SDS011;2148;48.554;7.834;2024-02-21T01:24:24;5.83;;;4.10;;
4268;SDS011;2148;48.554;7.834;2024-02-21T01:26:50;7.47;;;4.67;;
4268;SDS011;2148;48.554;7.834;2024-02-21T01:29:15;6.70;;;4.33;;
4268;SDS011;2148;48.554;7.834;2024-02-21T01:31:40;9.97;;;4.33;;
4268;SDS011;2148;48.554;7.834;2024-02-21T01:34:05;9.53;;;4.57;;
4268;SDS011;2148;48.554;7.834;2024-02-21T01:36:31;6.03;;;4.50;;
4268;SDS011;2148;48.554;7.834;2024-02-21T01:38:56;6.63;;;4.40;;
4268;SDS011;2148;48.554;7.834;2024-02-21T01:41:21;9.57;;;4.77;;
4268;SDS011;2148;48.554;7.834;2024-02-21T01:43:46;7.17;;;4.37;;
4268;SDS011;2148;48.554;7.834;2024-02-21T01:46:12;8.27;;;4.40;;
4268;SDS011;2148;48.554;7.834;2024-02-21T01:48:37;5.33;;;4.33;;
4268;SDS011;2148;48.554;7.834;2024-02-21T01:51:02;8.23;;;4.60;;
4268;SDS011;2148;48.554;7.834;2024-02-21T01:53:30;6.43;;;3.80;;
4268;SDS011;2148;48.554;7.834;2024-02-21T01:55:56;7.17;;;3.83;;
4268;SDS011;2148;48.554;7.834;2024-02-21T01:58:21;4.83;;;3.80;;
4268;SDS011;2148;48.554;7.834;2024-02-21T02:00:47;4.73;;;3.77;;
4268;SDS011;2148;48.554;7.834;2024-02-21T02:03:13;6.40;;;3.77;;
4268;SDS011;2148;48.554;7.834;2024-02-21T02:05:42;6.73;;;4.53;;
4268;SDS011;2148;48.554;7.834;2024-02-21T02:08:11;5.07;;;3.80;;
4268;SDS011;2148;48.554;7.834;2024-02-21T02:10:38;7.97;;;4.60;;
4268;SDS011;2148;48.554;7.834;2024-02-21T02:13:04;10.23;;;4.60;;
4268;SDS011;2148;48.554;7.834;2024-02-21T02:15:45;10.27;;;4.77;;
4268;SDS011;2148;48.554;7.834;2024-02-21T02:18:12;6.77;;;4.30;;
4268;SDS011;2148;48.554;7.834;2024-02-21T02:20:38;7.80;;;4.23;;
4268;SDS011;2148;48.554;7.834;2024-02-21T02:23:07;7.33;;;4.53;;
4268;SDS011;2148;48.554;7.834;2024-02-21T02:25:33;10.43;;;4.50;;
4268;SDS011;2148;48.554;7.834;2024-02-21T02:27:59;8.40;;;4.00;;
4268;SDS011;2148;48.554;7.834;2024-02-21T02:30:24;7.20;;;4.20;;
4268;SDS011;2148;48.554;7.834;2024-02-21T02:32:50;7.33;;;4.93;;
4268;SDS011;2148;48.554;7.834;2024-02-21T02:35:15;5.50;;;4.23;;
4268;SDS011;2148;48.554;7.834;2024-02-21T02:37:47;7.13;;;4.23;;
4268;SDS011;2148;48.554;7.834;2024-02-21T02:40:12;7.83;;;4.60;;
4268;SDS011;2148;48.554;7.834;2024-02-21T02:42:38;8.83;;;4.20;;
4268;SDS011;2148;48.554;7.834;2024-02-21T02:45:03;5.70;;;4.13;;
4268;SDS011;2148;48.554;7.834;2024-02-21T02:47:29;9.90;;;4.77;;
4268;SDS011;2148;48.554;7.834;2024-02-21T02:49:54;8.23;;;4.47;;
4268;SDS011;2148;48.554;7.834;2024-02-21T02:52:19;7.23;;;3.80;;
4268;SDS011;2148;48.554;7.834;2024-02-21T02:54:45;4.63;;;4.13;;
4268;SDS011;2148;48.554;7.834;2024-02-21T02:57:10;7.90;;;4.30;;
4268;SDS011;2148;48.554;7.834;2024-02-21T02:59:35;6.40;;;4.60;;
4268;SDS011;2148;48.554;7.834;2024-02-21T03:02:00;8.70;;;4.60;;
4268;SDS011;2148;48.554;7.834;2024-02-21T03:04:26;7.00;;;4.97;;
4268;SDS011;2148;48.554;7.834;2024-02-21T03:06:51;7.10;;;4.60;;
4268;SDS011;2148;48.554;7.834;2024-02-21T03:09:16;9.83;;;4.40;;
4268;SDS011;2148;48.554;7.834;2024-02-21T03:11:42;7.27;;;4.60;;
4268;SDS011;2148;48.554;7.834;2024-02-21T03:14:09;5.80;;;4.07;;
4268;SDS011;2148;48.554;7.834;2024-02-21T03:16:34;6.03;;;4.43;;
4268;SDS011;2148;48.554;7.834;2024-02-21T03:18:59;7.13;;;4.60;;
4268;SDS011;2148;48.554;7.834;2024-02-21T03:21:25;8.90;;;4.40;;
4268;SDS011;2148;48.554;7.834;2024-02-21T03:23:50;7.57;;;3.83;;
4268;SDS011;2148;48.554;7.834;2024-02-21T03:26:15;7.80;;;4.37;;
4268;SDS011;2148;48.554;7.834;2024-02-21T03:28:42;6.97;;;4.40;;
4268;SDS011;2148;48.554;7.834;2024-02-21T03:31:10;8.57;;;4.10;;
4268;SDS011;2148;48.554;7.834;2024-02-21T03:33:36;7.33;;;4.50;;
4268;SDS011;2148;48.554;7.834;2024-02-21T03:36:01;7.73;;;4.47;;
4268;SDS011;2148;48.554;7.834;2024-02-21T03:38:26;7.07;;;4.33;;
4268;SDS011;2148;48.554;7.834;2024-02-21T03:40:52;7.93;;;4.00;;
4268;SDS011;2148;48.554;7.834;2024-02-21T03:43:17;9.20;;;3.80;;
4268;SDS011;2148;48.554;7.834;2024-02-21T03:45:42;6.73;;;4.00;;
4268;SDS011;2148;48.554;7.834;2024-02-21T03:48:07;5.20;;;3.73;;
4268;SDS011;2148;48.554;7.834;2024-02-21T03:50:33;5.77;;;4.33;;
4268;SDS011;2148;48.554;7.834;2024-02-21T03:52:58;7.80;;;5.00;;
4268;SDS011;2148;48.554;7.834;2024-02-21T03:55:23;5.50;;;3.80;;
4268;SDS011;2148;48.554;7.834;2024-02-21T03:58:01;10.30;;;4.17;;
4268;SDS011;2148;48.554;7.834;2024-02-21T04:00:26;6.00;;;3.70;;
4268;SDS011;2148;48.554;7.834;2024-02-21T04:02:52;6.77;;;4.00;;
4268;SDS011;2148;48.554;7.834;2024-02-21T04:05:17;6.03;;;3.90;;
4268;SDS011;2148;48.554;7.834;2024-02-21T04:07:42;7.87;;;4.00;;
4268;SDS011;2148;48.554;7.834;2024-02-21T04:10:08;6.67;;;4.40;;
4268;SDS011;2148;48.554;7.834;2024-02-21T04:12:33;7.13;;;4.03;;
4268;SDS011;2148;48.554;7.834;2024-02-21T04:14:58;5.17;;;4.30;;
4268;SDS011;2148;48.554;7.834;2024-02-21T04:17:23;7.47;;;4.33;;
4268;SDS011;2148;48.554;7.834;2024-02-21T04:19:49;7.33;;;4.67;;
4268;SDS011;2148;48.554;7.834;2024-02-21T04:22:14;5.93;;;4.27;;
4268;SDS011;2148;48.554;7.834;2024-02-21T04:24:39;10.03;;;5.17;;
4268;SDS011;2148;48.554;7.834;2024-02-21T04:27:04;7.63;;;5.07;;
4268;SDS011;2148;48.554;7.834;2024-02-21T04:29:29;10.23;;;5.00;;
4268;SDS011;2148;48.554;7.834;2024-02-21T04:31:55;9.70;;;5.13;;
4268;SDS011;2148;48.554;7.834;2024-02-21T04:34:21;6.43;;;4.53;;
4268;SDS011;2148;48.554;7.834;2024-02-21T04:36:46;5.73;;;4.20;;
4268;SDS011;2148;48.554;7.834;2024-02-21T04:39:11;7.93;;;4.33;;
4268;SDS011;2148;48.554;7.834;2024-02-21T04:41:36;6.47;;;4.60;;
4268;SDS011;2148;48.554;7.834;2024-02-21T04:44:02;7.57;;;4.57;;
4268;SDS011;2148;48.554;7.834;2024-02-21T04:46:28;4.87;;;3.93;;
4268;SDS011;2148;48.554;7.834;2024-02-21T04:48:54;9.10;;;4.87;;
4268;SDS011;2148;48.554;7.834;2024-02-21T04:51:20;8.67;;;4.70;;
4268;SDS011;2148;48.554;7.834;2024-02-21T04:53:45;7.57;;;4.70;;
4268;SDS011;2148;48.554;7.834;2024-02-21T04:56:11;8.40;;;4.20;;
4268;SDS011;2148;48.554;7.834;2024-02-21T04:58:39;10.07;;;4.50;;
4268;SDS011;2148;48.554;7.834;2024-02-21T05:01:05;10.07;;;5.00;;
4268;SDS011;2148;48.554;7.834;2024-02-21T05:03:30;7.77;;;4.47;;
4268;SDS011;2148;48.554;7.834;2024-02-21T05:05:55;7.13;;;4.33;;
4268;SDS011;2148;48.554;7.834;2024-02-21T05:08:21;6.07;;;4.03;;
4268;SDS011;2148;48.554;7.834;2024-02-21T05:10:46;6.03;;;4.00;;
4268;SDS011;2148;48.554;7.834;2024-02-21T05:13:11;4.80;;;4.00;;
4268;SDS011;2148;48.554;7.834;2024-02-21T05:15:36;8.97;;;4.40;;
4268;SDS011;2148;48.554;7.834;2024-02-21T05:18:02;6.20;;;4.00;;
4268;SDS011;2148;48.554;7.834;2024-02-21T05:20:27;5.43;;;3.77;;
4268;SDS011;2148;48.554;7.834;2024-02-21T05:22:52;5.80;;;4.10;;
4268;SDS011;2148;48.554;7.834;2024-02-21T05:25:17;8.40;;;4.00;;
4268;SDS011;2148;48.554;7.834;2024-02-21T05:27:43;8.50;;;4.20;;
4268;SDS011;2148;48.554;7.834;2024-02-21T05:30:08;7.13;;;4.23;;
4268;SDS011;2148;48.554;7.834;2024-02-21T05:32:35;8.03;;;4.43;;
4268;SDS011;2148;48.554;7.834;2024-02-21T05:35:00;7.13;;;4.43;;
4268;SDS011;2148;48.554;7.834;2024-02-21T05:37:25;8.33;;;5.20;;
4268;SDS011;2148;48.554;7.834;2024-02-21T05:39:51;4.93;;;3.80;;
4268;SDS011;2148;48.554;7.834;2024-02-21T05:42:16;5.17;;;4.10;;
4268;SDS011;2148;48.554;7.834;2024-02-21T05:44:41;5.13;;;3.90;;
4268;SDS011;2148;48.554;7.834;2024-02-21T05:47:07;5.67;;;4.10;;
4268;SDS011;2148;48.554;7.834;2024-02-21T05:49:35;7.93;;;3.87;;
4268;SDS011;2148;48.554;7.834;2024-02-21T05:52:00;5.33;;;3.83;;
4268;SDS011;2148;48.554;7.834;2024-02-21T05:54:26;6.77;;;4.13;;
4268;SDS011;2148;48.554;7.834;2024-02-21T05:56:51;7.53;;;4.00;;
4268;SDS011;2148;48.554;7.834;2024-02-21T05:59:17;7.63;;;3.93;;
4268;SDS011;2148;48.554;7.834;2024-02-21T06:01:42;5.50;;;4.23;;
4268;SDS011;2148;48.554;7.834;2024-02-21T06:04:07;5.17;;;3.23;;
4268;SDS011;2148;48.554;7.834;2024-02-21T06:06:32;4.70;;;3.67;;
4268;SDS011;2148;48.554;7.834;2024-02-21T06:08:58;6.73;;;3.83;;
4268;SDS011;2148;48.554;7.834;2024-02-21T06:11:24;5.63;;;4.20;;
4268;SDS011;2148;48.554;7.834;2024-02-21T06:13:49;5.27;;;3.93;;
4268;SDS011;2148;48.554;7.834;2024-02-21T06:16:14;6.90;;;3.70;;
4268;SDS011;2148;48.554;7.834;2024-02-21T06:18:40;6.13;;;3.63;;
4268;SDS011;2148;48.554;7.834;2024-02-21T06:21:05;5.03;;;3.47;;
4268;SDS011;2148;48.554;7.834;2024-02-21T06:23:30;4.43;;;3.80;;
4268;SDS011;2148;48.554;7.834;2024-02-21T06:25:55;6.00;;;4.10;;
4268;SDS011;2148;48.554;7.834;2024-02-21T06:28:21;8.90;;;3.83;;
4268;SDS011;2148;48.554;7.834;2024-02-21T06:30:46;5.77;;;3.30;;
4268;SDS011;2148;48.554;7.834;2024-02-21T06:33:11;6.43;;;3.70;;
4268;SDS011;2148;48.554;7.834;2024-02-21T06:35:36;6.80;;;4.30;;
4268;SDS011;2148;48.554;7.834;2024-02-21T06:38:05;5.33;;;3.43;;
4268;SDS011;2148;48.554;7.834;2024-02-21T06:40:31;6.63;;;4.00;;
4268;SDS011;2148;48.554;7.834;2024-02-21T06:43:03;5.27;;;3.70;;
4268;SDS011;2148;48.554;7.834;2024-02-21T06:45:28;6.30;;;3.60;;
4268;SDS011;2148;48.554;7.834;2024-02-21T06:47:54;7.23;;;4.17;;
4268;SDS011;2148;48.554;7.834;2024-02-21T06:50:19;8.37;;;3.90;;
4268;SDS011;2148;48.554;7.834;2024-02-21T06:52:44;6.97;;;4.20;;
4268;SDS011;2148;48.554;7.834;2024-02-21T06:55:09;8.40;;;5.03;;
4268;SDS011;2148;48.554;7.834;2024-02-21T06:57:35;4.60;;;3.93;;
4268;SDS011;2148;48.554;7.834;2024-02-21T07:00:00;6.43;;;4.73;;
4268;SDS011;2148;48.554;7.834;2024-02-21T07:02:25;7.20;;;3.70;;
4268;SDS011;2148;48.554;7.834;2024-02-21T07:04:50;7.83;;;4.23;;
4268;SDS011;2148;48.554;7.834;2024-02-21T07:07:16;9.83;;;4.53;;
4268;SDS011;2148;48.554;7.834;2024-02-21T07:09:41;8.87;;;4.53;;
4268;SDS011;2148;48.554;7.834;2024-02-21T07:12:06;8.70;;;3.63;;
4268;SDS011;2148;48.554;7.834;2024-02-21T07:14:32;7.83;;;4.13;;
4268;SDS011;2148;48.554;7.834;2024-02-21T07:16:58;6.13;;;4.20;;
4268;SDS011;2148;48.554;7.834;2024-02-21T07:19:23;6.03;;;4.60;;
4268;SDS011;2148;48.554;7.834;2024-02-21T07:21:48;6.87;;;4.77;;
4268;SDS011;2148;48.554;7.834;2024-02-21T07:24:14;9.33;;;4.07;;
4268;SDS011;2148;48.554;7.834;2024-02-21T07:26:42;6.93;;;4.20;;
4268;SDS011;2148;48.554;7.834;2024-02-21T07:29:08;6.87;;;4.50;;
4268;SDS011;2148;48.554;7.834;2024-02-21T07:31:38;7.37;;;4.40;;
4268;SDS011;2148;48.554;7.834;2024-02-21T07:34:05;8.17;;;3.80;;
4268;SDS011;2148;48.554;7.834;2024-02-21T07:36:30;6.73;;;4.30;;
4268;SDS011;2148;48.554;7.834;2024-02-21T07:38:55;7.07;;;4.30;;
4268;SDS011;2148;48.554;7.834;2024-02-21T07:41:21;8.87;;;4.40;;
4268;SDS011;2148;48.554;7.834;2024-02-21T07:43:46;4.53;;;3.73;;
4268;SDS011;2148;48.554;7.834;2024-02-21T07:46:13;8.73;;;4.20;;
4268;SDS011;2148;48.554;7.834;2024-02-21T07:48:38;6.27;;;4.27;;
4268;SDS011;2148;48.554;7.834;2024-02-21T07:51:04;7.93;;;4.97;;
4268;SDS011;2148;48.554;7.834;2024-02-21T07:53:29;7.13;;;4.23;;
4268;SDS011;2148;48.554;7.834;2024-02-21T07:55:54;6.60;;;4.20;;
4268;SDS011;2148;48.554;7.834;2024-02-21T07:58:19;5.83;;;4.47;;
4268;SDS011;2148;48.554;7.834;2024-02-21T08:00:45;5.47;;;3.37;;
4268;SDS011;2148;48.554;7.834;2024-02-21T08:03:10;4.40;;;3.73;;
4268;SDS011;2148;48.554;7.834;2024-02-21T08:05:35;5.60;;;3.57;;
4268;SDS011;2148;48.554;7.834;2024-02-21T08:08:01;6.23;;;4.03;;
4268;SDS011;2148;48.554;7.834;2024-02-21T08:10:27;11.00;;;4.80;;
4268;SDS011;2148;48.554;7.834;2024-02-21T08:12:53;8.00;;;4.80;;
4268;SDS011;2148;48.554;7.834;2024-02-21T08:15:18;6.70;;;4.17;;
4268;SDS011;2148;48.554;7.834;2024-02-21T08:17:43;8.77;;;4.20;;
4268;SDS011;2148;48.554;7.834;2024-02-21T08:20:09;9.30;;;4.67;;
4268;SDS011;2148;48.554;7.834;2024-02-21T08:22:37;7.53;;;4.20;;
4268;SDS011;2148;48.554;7.834;2024-02-21T08:25:02;7.67;;;4.50;;
4268;SDS011;2148;48.554;7.834;2024-02-21T08:27:30;8.20;;;4.40;;
4268;SDS011;2148;48.554;7.834;2024-02-21T08:29:55;7.20;;;4.60;;
4268;SDS011;2148;48.554;7.834;2024-02-21T08:32:21;8.03;;;4.43;;
4268;SDS011;2148;48.554;7.834;2024-02-21T08:34:46;6.60;;;4.53;;
4268;SDS011;2148;48.554;7.834;2024-02-21T08:37:11;8.27;;;4.90;;
4268;SDS011;2148;48.554;7.834;2024-02-21T08:39:36;8.67;;;4.57;;
4268;SDS011;2148;48.554;7.834;2024-02-21T08:42:02;5.30;;;4.03;;
4268;SDS011;2148;48.554;7.834;2024-02-21T08:44:27;6.70;;;4.13;;
4268;SDS011;2148;48.554;7.834;2024-02-21T08:46:52;9.73;;;4.03;;
4268;SDS011;2148;48.554;7.834;2024-02-21T08:49:18;5.97;;;3.73;;
4268;SDS011;2148;48.554;7.834;2024-02-21T08:51:43;6.60;;;4.43;;
4268;SDS011;2148;48.554;7.834;2024-02-21T08:54:08;6.13;;;4.17;;
4268;SDS011;2148;48.554;7.834;2024-02-21T08:56:34;6.63;;;4.13;;
4268;SDS011;2148;48.554;7.834;2024-02-21T08:59:00;7.70;;;4.87;;
4268;SDS011;2148;48.554;7.834;2024-02-21T09:01:26;7.13;;;4.70;;
4268;SDS011;2148;48.554;7.834;2024-02-21T09:03:51;8.63;;;4.83;;
4268;SDS011;2148;48.554;7.834;2024-02-21T09:06:18;11.17;;;4.53;;
4268;SDS011;2148;48.554;7.834;2024-02-21T09:08:44;7.53;;;4.60;;
4268;SDS011;2148;48.554;7.834;2024-02-21T09:11:10;6.70;;;4.03;;
4268;SDS011;2148;48.554;7.834;2024-02-21T09:13:35;8.27;;;4.17;;
4268;SDS011;2148;48.554;7.834;2024-02-21T09:16:00;6.80;;;4.43;;
4268;SDS011;2148;48.554;7.834;2024-02-21T09:18:25;9.50;;;4.77;;
4268;SDS011;2148;48.554;7.834;2024-02-21T09:20:51;6.60;;;4.70;;
4268;SDS011;2148;48.554;7.834;2024-02-21T09:23:16;7.53;;;4.77;;
4268;SDS011;2148;48.554;7.834;2024-02-21T09:25:42;11.80;;;4.80;;
4268;SDS011;2148;48.554;7.834;2024-02-21T09:28:07;8.80;;;4.23;;
4268;SDS011;2148;48.554;7.834;2024-02-21T09:30:32;8.60;;;4.47;;
4268;SDS011;2148;48.554;7.834;2024-02-21T09:32:58;6.20;;;4.90;;
4268;SDS011;2148;48.554;7.834;2024-02-21T09:35:24;10.00;;;4.93;;
4268;SDS011;2148;48.554;7.834;2024-02-21T09:37:51;10.83;;;5.47;;
4268;SDS011;2148;48.554;7.834;2024-02-21T09:40:17;6.63;;;4.77;;
4268;SDS011;2148;48.554;7.834;2024-02-21T09:42:42;7.03;;;4.50;;
4268;SDS011;2148;48.554;7.834;2024-02-21T09:45:29;7.13;;;4.10;;
4268;SDS011;2148;48.554;7.834;2024-02-21T09:50:30;6.07;;;4.10;;
4268;SDS011;2148;48.554;7.834;2024-02-21T09:52:59;9.33;;;4.27;;
4268;SDS011;2148;48.554;7.834;2024-02-21T09:55:27;8.57;;;4.33;;
4268;SDS011;2148;48.554;7.834;2024-02-21T09:57:52;4.67;;;2.97;;
4268;SDS011;2148;48.554;7.834;2024-02-21T10:00:18;6.97;;;3.70;;
4268;SDS011;2148;48.554;7.834;2024-02-21T10:02:49;5.63;;;2.90;;
4268;SDS011;2148;48.554;7.834;2024-02-21T10:05:15;5.17;;;3.37;;
4268;SDS011;2148;48.554;7.834;2024-02-21T10:07:40;5.77;;;3.87;;
4268;SDS011;2148;48.554;7.834;2024-02-21T10:10:06;6.53;;;3.63;;
4268;SDS011;2148;48.554;7.834;2024-02-21T10:12:32;5.40;;;3.80;;
4268;SDS011;2148;48.554;7.834;2024-02-21T10:15:03;5.07;;;3.50;;
4268;SDS011;2148;48.554;7.834;2024-02-21T10:17:29;4.90;;;2.77;;
4268;SDS011;2148;48.554;7.834;2024-02-21T10:19:55;4.13;;;3.10;;
4268;SDS011;2148;48.554;7.834;2024-02-21T10:22:20;3.63;;;2.93;;
4268;SDS011;2148;48.554;7.834;2024-02-21T10:24:46;6.13;;;3.37;;
4268;SDS011;2148;48.554;7.834;2024-02-21T10:27:11;9.90;;;3.90;;
4268;SDS011;2148;48.554;7.834;2024-02-21T10:29:37;4.20;;;3.03;;
4268;SDS011;2148;48.554;7.834;2024-02-21T10:32:09;5.03;;;3.10;;
4268;SDS011;2148;48.554;7.834;2024-02-21T10:34:36;10.63;;;4.00;;
4268;SDS011;2148;48.554;7.834;2024-02-21T10:37:02;5.50;;;3.47;;
4268;SDS011;2148;48.554;7.834;2024-02-21T10:39:29;5.57;;;3.63;;
4268;SDS011;2148;48.554;7.834;2024-02-21T10:41:56;4.93;;;3.30;;
4268;SDS011;2148;48.554;7.834;2024-02-21T10:44:25;5.97;;;3.37;;
4268;SDS011;2148;48.554;7.834;2024-02-21T10:46:51;5.90;;;3.13;;
4268;SDS011;2148;48.554;7.834;2024-02-21T10:49:19;7.70;;;3.53;;
4268;SDS011;2148;48.554;7.834;2024-02-21T10:51:50;5.87;;;3.50;;
4268;SDS011;2148;48.554;7.834;2024-02-21T10:56:50;7.17;;;3.60;;
4268;SDS011;2148;48.554;7.834;2024-02-21T10:59:16;7.10;;;3.60;;
4268;SDS011;2148;48.554;7.834;2024-02-21T11:01:42;4.43;;;2.93;;
4268;SDS011;2148;48.554;7.834;2024-02-21T11:04:08;3.53;;;3.07;;
4268;SDS011;2148;48.554;7.834;2024-02-21T11:06:37;7.70;;;3.77;;
4268;SDS011;2148;48.554;7.834;2024-02-21T11:09:04;6.90;;;3.10;;
4268;SDS011;2148;48.554;7.834;2024-02-21T11:11:33;8.77;;;3.37;;
4268;SDS011;2148;48.554;7.834;2024-02-21T11:14:09;5.43;;;3.50;;
4268;SDS011;2148;48.554;7.834;2024-02-21T11:16:36;5.97;;;4.10;;
4268;SDS011;2148;48.554;7.834;2024-02-21T11:19:09;7.47;;;3.47;;
4268;SDS011;2148;48.554;7.834;2024-02-21T11:21:36;8.40;;;3.50;;
4268;SDS011;2148;48.554;7.834;2024-02-21T11:24:05;4.77;;;2.30;;
4268;SDS011;2148;48.554;7.834;2024-02-21T11:26:31;4.40;;;2.77;;
4268;SDS011;2148;48.554;7.834;2024-02-21T11:29:00;3.43;;;2.87;;
4268;SDS011;2148;48.554;7.834;2024-02-21T11:31:37;5.80;;;3.70;;
4268;SDS011;2148;48.554;7.834;2024-02-21T11:34:03;6.60;;;3.20;;
4268;SDS011;2148;48.554;7.834;2024-02-21T11:36:29;5.67;;;3.33;;
4268;SDS011;2148;48.554;7.834;2024-02-21T11:38:54;6.43;;;3.77;;
4268;SDS011;2148;48.554;7.834;2024-02-21T11:41:19;5.13;;;3.30;;
4268;SDS011;2148;48.554;7.834;2024-02-21T11:43:50;7.13;;;3.30;;
4268;SDS011;2148;48.554;7.834;2024-02-21T11:46:16;7.27;;;3.00;;
4268;SDS011;2148;48.554;7.834;2024-02-21T11:48:42;6.97;;;3.87;;
4268;SDS011;2148;48.554;7.834;2024-02-21T11:51:12;3.13;;;2.73;;
4268;SDS011;2148;48.554;7.834;2024-02-21T11:53:46;5.93;;;3.20;;
4268;SDS011;2148;48.554;7.834;2024-02-21T11:56:11;5.53;;;3.10;;
4268;SDS011;2148;48.554;7.834;2024-02-21T11:58:36;4.87;;;3.40;;
4268;SDS011;2148;48.554;7.834;2024-02-21T12:01:02;6.20;;;4.03;;
4268;SDS011;2148;48.554;7.834;2024-02-21T12:03:29;7.30;;;4.07;;
4268;SDS011;2148;48.554;7.834;2024-02-21T12:05:54;7.33;;;3.77;;
4268;SDS011;2148;48.554;7.834;2024-02-21T12:08:22;8.00;;;3.90;;
4268;SDS011;2148;48.554;7.834;2024-02-21T12:10:47;6.87;;;3.83;;
4268;SDS011;2148;48.554;7.834;2024-02-21T12:13:16;7.50;;;4.13;;
4268;SDS011;2148;48.554;7.834;2024-02-21T12:15:41;5.13;;;2.87;;
4268;SDS011;2148;48.554;7.834;2024-02-21T12:18:06;7.97;;;3.80;;
4268;SDS011;2148;48.554;7.834;2024-02-21T12:20:32;4.90;;;3.90;;
4268;SDS011;2148;48.554;7.834;2024-02-21T12:22:59;4.93;;;2.80;;
4268;SDS011;2148;48.554;7.834;2024-02-21T12:25:25;6.63;;;3.03;;
4268;SDS011;2148;48.554;7.834;2024-02-21T12:27:53;6.10;;;3.67;;
4268;SDS011;2148;48.554;7.834;2024-02-21T12:30:19;4.70;;;3.50;;
4268;SDS011;2148;48.554;7.834;2024-02-21T12:32:44;3.17;;;2.47;;
4268;SDS011;2148;48.554;7.834;2024-02-21T12:35:10;7.53;;;3.50;;
4268;SDS011;2148;48.554;7.834;2024-02-21T12:37:35;7.47;;;3.70;;
4268;SDS011;2148;48.554;7.834;2024-02-21T12:40:01;6.07;;;4.07;;
4268;SDS011;2148;48.554;7.834;2024-02-21T12:42:26;5.93;;;3.63;;
4268;SDS011;2148;48.554;7.834;2024-02-21T12:44:51;5.83;;;3.97;;
4268;SDS011;2148;48.554;7.834;2024-02-21T12:47:17;5.97;;;3.83;;
4268;SDS011;2148;48.554;7.834;2024-02-21T12:49:44;6.40;;;3.20;;
4268;SDS011;2148;48.554;7.834;2024-02-21T12:52:10;7.17;;;3.60;;
4268;SDS011;2148;48.554;7.834;2024-02-21T12:54:35;9.20;;;4.77;;
4268;SDS011;2148;48.554;7.834;2024-02-21T12:57:01;4.67;;;3.33;;
4268;SDS011;2148;48.554;7.834;2024-02-21T12:59:28;7.20;;;4.37;;
4268;SDS011;2148;48.554;7.834;2024-02-21T13:01:53;9.43;;;3.53;;
4268;SDS011;2148;48.554;7.834;2024-02-21T13:04:19;7.23;;;3.50;;
4268;SDS011;2148;48.554;7.834;2024-02-21T13:06:44;5.43;;;3.90;;
4268;SDS011;2148;48.554;7.834;2024-02-21T13:09:09;8.27;;;3.77;;
4268;SDS011;2148;48.554;7.834;2024-02-21T13:11:36;5.47;;;3.10;;
4268;SDS011;2148;48.554;7.834;2024-02-21T13:14:02;5.83;;;3.13;;
4268;SDS011;2148;48.554;7.834;2024-02-21T13:16:28;2.23;;;1.97;;
4268;SDS011;2148;48.554;7.834;2024-02-21T13:18:53;2.93;;;2.30;;
4268;SDS011;2148;48.554;7.834;2024-02-21T13:21:18;7.00;;;3.30;;
4268;SDS011;2148;48.554;7.834;2024-02-21T13:23:44;5.83;;;3.27;;
4268;SDS011;2148;48.554;7.834;2024-02-21T13:26:09;5.17;;;3.40;;
4268;SDS011;2148;48.554;7.834;2024-02-21T13:28:35;3.30;;;3.00;;
4268;SDS011;2148;48.554;7.834;2024-02-21T13:31:00;5.60;;;3.60;;
4268;SDS011;2148;48.554;7.834;2024-02-21T13:33:25;6.33;;;3.73;;
4268;SDS011;2148;48.554;7.834;2024-02-21T13:35:50;4.53;;;3.40;;
4268;SDS011;2148;48.554;7.834;2024-02-21T13:38:16;5.77;;;3.20;;
4268;SDS011;2148;48.554;7.834;2024-02-21T13:40:43;5.43;;;3.20;;
4268;SDS011;2148;48.554;7.834;2024-02-21T13:43:09;6.93;;;3.43;;
4268;SDS011;2148;48.554;7.834;2024-02-21T13:45:35;5.57;;;4.17;;
4268;SDS011;2148;48.554;7.834;2024-02-21T13:48:00;4.63;;;3.20;;
4268;SDS011;2148;48.554;7.834;2024-02-21T13:50:29;6.03;;;3.80;;
4268;SDS011;2148;48.554;7.834;2024-02-21T13:52:56;4.90;;;3.60;;
4268;SDS011;2148;48.554;7.834;2024-02-21T13:55:21;3.90;;;2.33;;
4268;SDS011;2148;48.554;7.834;2024-02-21T13:57:52;4.63;;;2.90;;
4268;SDS011;2148;48.554;7.834;2024-02-21T14:00:17;4.87;;;2.73;;
4268;SDS011;2148;48.554;7.834;2024-02-21T14:02:43;4.67;;;3.07;;
4268;SDS011;2148;48.554;7.834;2024-02-21T14:05:08;2.87;;;2.27;;
4268;SDS011;2148;48.554;7.834;2024-02-21T14:07:34;3.70;;;2.60;;
4268;SDS011;2148;48.554;7.834;2024-02-21T14:09:59;6.00;;;3.07;;
4268;SDS011;2148;48.554;7.834;2024-02-21T14:12:24;4.87;;;2.10;;
4268;SDS011;2148;48.554;7.834;2024-02-21T14:14:49;6.53;;;2.60;;
4268;SDS011;2148;48.554;7.834;2024-02-21T14:17:15;3.57;;;2.60;;
4268;SDS011;2148;48.554;7.834;2024-02-21T14:19:40;1.90;;;1.73;;
4268;SDS011;2148;48.554;7.834;2024-02-21T14:22:06;4.50;;;2.70;;
4268;SDS011;2148;48.554;7.834;2024-02-21T14:24:31;4.67;;;2.40;;
4268;SDS011;2148;48.554;7.834;2024-02-21T14:26:57;2.90;;;2.17;;
4268;SDS011;2148;48.554;7.834;2024-02-21T14:29:22;2.43;;;2.23;;
4268;SDS011;2148;48.554;7.834;2024-02-21T14:31:48;3.90;;;2.37;;
4268;SDS011;2148;48.554;7.834;2024-02-21T14:34:13;3.37;;;2.60;;
4268;SDS011;2148;48.554;7.834;2024-02-21T14:36:38;3.57;;;2.53;;
4268;SDS011;2148;48.554;7.834;2024-02-21T14:39:03;3.53;;;2.40;;
4268;SDS011;2148;48.554;7.834;2024-02-21T14:41:29;4.00;;;2.47;;
4268;SDS011;2148;48.554;7.834;2024-02-21T14:43:55;4.13;;;2.57;;
4268;SDS011;2148;48.554;7.834;2024-02-21T14:46:24;4.37;;;3.00;;
4268;SDS011;2148;48.554;7.834;2024-02-21T14:48:50;3.00;;;2.37;;
4268;SDS011;2148;48.554;7.834;2024-02-21T14:51:15;6.70;;;2.53;;
4268;SDS011;2148;48.554;7.834;2024-02-21T14:53:40;6.27;;;2.80;;
4268;SDS011;2148;48.554;7.834;2024-02-21T14:56:12;3.27;;;2.20;;
4268;SDS011;2148;48.554;7.834;2024-02-21T14:58:38;3.83;;;2.43;;
4268;SDS011;2148;48.554;7.834;2024-02-21T15:01:04;4.50;;;3.07;;
4268;SDS011;2148;48.554;7.834;2024-02-21T15:03:29;3.73;;;2.43;;
4268;SDS011;2148;48.554;7.834;2024-02-21T15:05:54;2.73;;;1.60;;
4268;SDS011;2148;48.554;7.834;2024-02-21T15:08:19;3.83;;;2.30;;
4268;SDS011;2148;48.554;7.834;2024-02-21T15:10:45;2.70;;;1.97;;
4268;SDS011;2148;48.554;7.834;2024-02-21T15:13:10;4.60;;;2.83;;